VGT weather

North Las Vegas Airport
Las Vegas, Nevada, United States

Public forecast

Using degrees Fahrenheit for public forecast. Weather courtesy of forecast.io.

Current aviation weather report (METAR) for North Las Vegas Airport

Retrieved 2019/10/18 09:53 UTC (59 minutes ago):

KVGT 180953Z AUTO 32015KT 10SM CLR 21/M03 A2974 RMK AO2 SLP067 T02111028

Aviation forecast (TAF) for North Las Vegas Airport

Retrieved 2019/10/18 06:22 UTC (5 hours ago):

TAF KVGT 180520Z 1806/1906 33020G30KT P6SM FEW120 FEW200 FM181500 35012G20KT P6SM SCT250 FM182100 35010KT P6SM FEW250 FM190200 34008KT P6SM FEW150 SCT250